Time;durP1;ratioP1;P1;durP2;ratioP2;P2;SDS_P1;SDS_P2;PMS_P1;PMS_P2;Temp;Humidity;BMP_temperature;BMP_pressure;BME280_temperature;BME280_humidity;BME280_pressure;Samples;Min_cycle;Max_cycle;Signal;HPM_P1;HPM_P2
2022/08/30 00:01:11;;;;;;;10.47;7.83;;;21.00;99.90;;;;;;5073091;28;20559;-56
2022/08/30 00:03:44;;;;;;;6.90;6.20;;;20.80;99.90;;;;;;5076960;28;20450;-56
2022/08/30 00:06:12;;;;;;;9.27;7.00;;;20.60;99.90;;;;;;5077068;28;20478;-56
2022/08/30 00:08:40;;;;;;;7.03;5.47;;;20.60;99.90;;;;;;5077113;28;20543;-56
2022/08/30 00:11:09;;;;;;;6.83;6.20;;;20.60;99.90;;;;;;5076770;28;20484;-56
2022/08/30 00:13:37;;;;;;;7.03;5.70;;;20.70;99.90;;;;;;5077087;28;20444;-56
2022/08/30 00:16:05;;;;;;;5.83;5.27;;;20.70;99.90;;;;;;5076819;28;20860;-56
2022/08/30 00:18:33;;;;;;;6.27;5.67;;;20.60;99.90;;;;;;5076831;28;20945;-56
2022/08/30 00:21:02;;;;;;;8.23;5.43;;;20.60;99.90;;;;;;5076976;28;20474;-55
2022/08/30 00:23:29;;;;;;;6.47;5.77;;;20.60;99.90;;;;;;5076947;28;20444;-56
2022/08/30 00:25:56;;;;;;;6.77;6.17;;;20.50;99.90;;;;;;5076884;28;20539;-56
2022/08/30 00:28:23;;;;;;;6.73;5.93;;;20.50;99.90;;;;;;5076957;28;20788;-56
2022/08/30 00:30:51;;;;;;;7.77;5.77;;;20.50;99.90;;;;;;5076642;28;20825;-55
2022/08/30 00:33:18;;;;;;;7.40;6.27;;;20.40;99.90;;;;;;5076456;28;20952;-55
2022/08/30 00:35:45;;;;;;;6.80;6.20;;;20.40;99.90;;;;;;5076809;28;20448;-56
2022/08/30 00:38:14;;;;;;;7.77;4.83;;;20.40;99.90;;;;;;5076174;28;20489;-56
2022/08/30 00:40:44;;;;;;;6.40;5.80;;;20.60;99.90;;;;;;5076435;28;20567;-55
2022/08/30 00:43:18;;;;;;;8.90;6.40;;;20.90;99.90;;;;;;5076740;28;20456;-56
2022/08/30 00:45:46;;;;;;;8.67;6.50;;;21.10;99.90;;;;;;5076334;28;20557;-56
2022/08/30 00:48:13;;;;;;;5.93;5.33;;;21.20;99.90;;;;;;5076422;28;20475;-56
2022/08/30 00:50:42;;;;;;;7.80;6.53;;;21.20;99.90;;;;;;5076407;28;20468;-56
2022/08/30 00:53:17;;;;;;;10.67;6.50;;;20.70;99.90;;;;;;5076472;28;20479;-56
2022/08/30 00:55:44;;;;;;;6.50;5.50;;;20.70;99.90;;;;;;5076358;28;20429;-56
2022/08/30 00:58:15;;;;;;;7.93;5.67;;;20.60;99.90;;;;;;5076229;28;20452;-56
2022/08/30 01:00:43;;;;;;;6.90;6.30;;;20.60;99.90;;;;;;5076367;28;20832;-56
2022/08/30 01:03:10;;;;;;;6.63;6.00;;;20.50;99.90;;;;;;5075943;28;20531;-55
2022/08/30 01:05:39;;;;;;;7.30;6.60;;;20.30;99.90;;;;;;5076154;28;20502;-56
2022/08/30 01:08:06;;;;;;;6.53;5.83;;;20.40;99.90;;;;;;5075758;28;20530;-55
2022/08/30 01:10:36;;;;;;;6.40;5.80;;;20.30;99.90;;;;;;5075662;28;20470;-55
2022/08/30 01:13:04;;;;;;;7.23;6.33;;;20.30;99.90;;;;;;5075567;28;20468;-56
2022/08/30 01:15:33;;;;;;;5.87;5.40;;;20.30;99.90;;;;;;5075370;28;20483;-55
2022/08/30 01:18:01;;;;;;;5.67;5.17;;;20.30;99.90;;;;;;5076059;28;20853;-56
2022/08/30 01:20:35;;;;;;;7.30;6.60;;;20.20;99.90;;;;;;5075482;28;20451;-56
2022/08/30 01:23:11;;;;;;;9.30;6.93;;;20.20;99.90;;;;;;5075863;28;20427;-55
2022/08/30 01:25:41;;;;;;;6.53;5.93;;;19.90;99.90;;;;;;5075522;28;20994;-56
2022/08/30 01:28:11;;;;;;;7.37;6.10;;;20.00;99.90;;;;;;5075560;28;20448;-56
2022/08/30 01:30:41;;;;;;;8.63;6.73;;;20.00;99.90;;;;;;5075350;28;20997;-56
2022/08/30 01:33:10;;;;;;;7.73;6.40;;;19.90;99.90;;;;;;5075290;28;21012;-55
2022/08/30 01:35:46;;;;;;;9.73;5.90;;;19.90;99.90;;;;;;5075592;28;20450;-56
2022/08/30 01:38:16;;;;;;;9.60;6.90;;;19.80;99.90;;;;;;5075524;28;20424;-56
2022/08/30 01:40:43;;;;;;;6.73;6.13;;;19.70;99.90;;;;;;5075399;28;20472;-56
2022/08/30 01:43:12;;;;;;;8.20;6.43;;;19.90;99.90;;;;;;5075502;28;20443;-55
2022/08/30 01:45:39;;;;;;;7.37;5.57;;;19.90;99.90;;;;;;5075342;28;20484;-56
2022/08/30 01:48:06;;;;;;;8.27;6.50;;;19.80;99.90;;;;;;5075222;28;20432;-56
2022/08/30 01:50:34;;;;;;;8.37;6.07;;;19.90;99.90;;;;;;5075249;28;20464;-55
2022/08/30 01:53:01;;;;;;;7.97;7.17;;;19.70;99.90;;;;;;5075254;28;20476;-55
2022/08/30 01:55:30;;;;;;;6.87;6.10;;;19.80;99.90;;;;;;5075326;28;20547;-56
2022/08/30 01:57:57;;;;;;;8.60;7.37;;;19.90;99.90;;;;;;5074942;28;20441;-57
2022/08/30 02:00:24;;;;;;;7.07;6.37;;;19.80;99.90;;;;;;5075059;28;20467;-56
2022/08/30 02:02:52;;;;;;;8.27;6.73;;;19.70;99.90;;;;;;5075227;28;20630;-55
2022/08/30 02:05:19;;;;;;;6.90;6.27;;;19.70;99.90;;;;;;5075056;28;20474;-56
2022/08/30 02:07:46;;;;;;;10.20;6.20;;;19.70;99.90;;;;;;5074932;28;20446;-56
2022/08/30 02:10:13;;;;;;;11.20;6.80;;;19.60;99.90;;;;;;5075032;28;20448;-56
2022/08/30 02:12:42;;;;;;;7.07;6.37;;;19.60;99.90;;;;;;5074420;28;20491;-56
2022/08/30 02:15:11;;;;;;;10.00;7.63;;;19.50;99.90;;;;;;5074840;28;20539;-55
2022/08/30 02:17:39;;;;;;;9.17;6.50;;;19.60;99.90;;;;;;5074917;28;20444;-56
2022/08/30 02:20:07;;;;;;;8.60;7.03;;;19.70;99.90;;;;;;5074381;28;20811;-56
2022/08/30 02:22:34;;;;;;;7.60;6.90;;;19.90;99.90;;;;;;5074422;28;20459;-55
2022/08/30 02:25:02;;;;;;;7.77;7.07;;;19.80;99.90;;;;;;5073990;28;20454;-55
2022/08/30 02:27:29;;;;;;;7.87;6.50;;;19.60;99.90;;;;;;5074254;28;20458;-56
2022/08/30 02:29:57;;;;;;;8.23;7.40;;;19.50;99.90;;;;;;5074521;28;20441;-56
2022/08/30 02:32:25;;;;;;;8.83;7.30;;;19.40;99.90;;;;;;5074442;28;20495;-56
2022/08/30 02:34:53;;;;;;;11.30;6.50;;;19.40;99.90;;;;;;5074249;28;20441;-56
2022/08/30 02:37:20;;;;;;;7.27;6.53;;;19.40;99.90;;;;;;5074375;28;20488;-55
2022/08/30 02:39:47;;;;;;;7.13;6.43;;;19.40;99.90;;;;;;5074253;28;20449;-55
2022/08/30 02:42:14;;;;;;;6.90;6.30;;;19.40;99.90;;;;;;5074467;28;20962;-56
2022/08/30 02:44:42;;;;;;;6.80;6.10;;;19.60;99.90;;;;;;5074247;28;20806;-56
2022/08/30 02:47:11;;;;;;;6.73;6.00;;;19.50;99.90;;;;;;5073749;28;20480;-56
2022/08/30 02:49:38;;;;;;;6.60;5.87;;;19.40;99.90;;;;;;5074297;28;20460;-55
2022/08/30 02:52:06;;;;;;;7.70;6.83;;;19.30;99.90;;;;;;5073791;28;20477;-56
2022/08/30 02:54:34;;;;;;;10.57;7.97;;;19.30;99.90;;;;;;5073778;28;20429;-56
2022/08/30 02:57:03;;;;;;;7.73;7.03;;;19.40;99.90;;;;;;5074174;28;20782;-55
2022/08/30 02:59:31;;;;;;;8.77;6.77;;;19.40;99.90;;;;;;5073971;28;20543;-55
2022/08/30 03:01:59;;;;;;;10.37;7.30;;;19.40;99.90;;;;;;5073834;28;20468;-56
2022/08/30 03:04:27;;;;;;;7.47;6.63;;;19.30;99.90;;;;;;5073723;28;20516;-55
2022/08/30 03:06:55;;;;;;;8.73;7.00;;;19.20;99.90;;;;;;5073816;28;20455;-56
2022/08/30 03:09:22;;;;;;;10.43;7.30;;;19.30;99.90;;;;;;5073714;28;20444;-56
2022/08/30 03:11:49;;;;;;;13.20;7.03;;;19.20;99.90;;;;;;5073317;28;20476;-55
2022/08/30 03:14:16;;;;;;;10.13;7.40;;;19.20;99.90;;;;;;5073849;28;20459;-55
2022/08/30 03:16:44;;;;;;;7.50;6.03;;;19.20;99.90;;;;;;5073653;28;20527;-56
2022/08/30 03:19:11;;;;;;;7.40;6.70;;;19.10;99.90;;;;;;5073749;28;20825;-56
2022/08/30 03:21:39;;;;;;;11.63;8.03;;;19.20;99.90;;;;;;5073619;28;20474;-56
2022/08/30 03:24:07;;;;;;;8.00;6.37;;;19.20;99.90;;;;;;5073279;28;20942;-56
2022/08/30 03:26:34;;;;;;;10.23;6.77;;;19.30;99.90;;;;;;5073595;28;20524;-56
2022/08/30 03:29:01;;;;;;;8.40;7.63;;;19.50;99.90;;;;;;5073712;28;20531;-56
2022/08/30 03:31:29;;;;;;;7.73;7.03;;;;;;;;;;5073447;28;20464;-56
2022/08/30 03:33:56;;;;;;;10.40;6.50;;;19.80;99.90;;;;;;5073442;28;20882;-56
2022/08/30 03:36:23;;;;;;;8.53;6.90;;;19.50;99.90;;;;;;5072918;28;20455;-56
2022/08/30 03:38:52;;;;;;;7.77;7.07;;;19.40;99.90;;;;;;5073283;28;20459;-56
2022/08/30 03:41:19;;;;;;;7.47;6.80;;;19.30;99.90;;;;;;5073370;28;20575;-55
2022/08/30 03:43:46;;;;;;;11.20;6.43;;;19.20;99.90;;;;;;5073345;28;20436;-56
2022/08/30 03:46:14;;;;;;;6.80;6.13;;;19.10;99.90;;;;;;5073067;28;20482;-56
2022/08/30 03:48:42;;;;;;;7.87;6.80;;;19.00;99.90;;;;;;5073333;28;20551;-56
2022/08/30 03:51:10;;;;;;;7.53;6.77;;;19.10;99.90;;;;;;5073082;28;20475;-55
2022/08/30 03:53:37;;;;;;;7.10;6.40;;;19.30;99.90;;;;;;5072958;28;20472;-56
2022/08/30 03:56:06;;;;;;;9.17;8.27;;;19.40;99.90;;;;;;5073268;28;20543;-56
2022/08/30 03:58:34;;;;;;;9.17;7.10;;;19.30;99.90;;;;;;5073383;28;20811;-56
2022/08/30 04:01:01;;;;;;;7.83;7.13;;;19.30;99.90;;;;;;5072832;28;20857;-56
2022/08/30 04:03:28;;;;;;;7.30;6.70;;;19.30;99.90;;;;;;5073203;28;20524;-56
2022/08/30 04:05:56;;;;;;;8.20;6.80;;;19.20;99.90;;;;;;5073177;28;20455;-56
2022/08/30 04:08:24;;;;;;;6.93;6.27;;;19.30;99.90;;;;;;5073173;28;20444;-56
2022/08/30 04:10:52;;;;;;;7.57;6.83;;;19.50;99.90;;;;;;5072630;28;21072;-56
2022/08/30 04:13:22;;;;;;;10.23;6.80;;;19.70;99.90;;;;;;5073030;28;20482;-56
2022/08/30 04:15:50;;;;;;;11.93;7.67;;;19.60;99.90;;;;;;5073233;28;20444;-56
2022/08/30 04:18:17;;;;;;;7.97;7.27;;;19.60;99.90;;;;;;5073020;28;20452;-56
2022/08/30 04:20:45;;;;;;;7.90;7.20;;;19.70;99.90;;;;;;5072886;28;20468;-56
2022/08/30 04:23:12;;;;;;;7.90;7.20;;;19.80;99.90;;;;;;5072813;28;20445;-56
2022/08/30 04:25:41;;;;;;;9.30;7.50;;;19.90;99.90;;;;;;5072931;28;20924;-56
2022/08/30 04:28:10;;;;;;;9.63;6.80;;;20.00;99.90;;;;;;5072794;28;20433;-56
2022/08/30 04:30:41;;;;;;;9.57;7.10;;;19.60;99.90;;;;;;5072916;28;20464;-56
2022/08/30 04:33:08;;;;;;;13.77;7.70;;;19.30;99.90;;;;;;5072635;28;20560;-56
2022/08/30 04:35:35;;;;;;;8.23;7.40;;;19.20;99.90;;;;;;5072518;28;20742;-56
2022/08/30 04:38:03;;;;;;;9.93;7.27;;;19.10;99.90;;;;;;5072936;28;20805;-56
2022/08/30 04:40:30;;;;;;;10.20;8.23;;;19.10;99.90;;;;;;5072707;28;20460;-56
2022/08/30 04:42:59;;;;;;;7.83;6.50;;;19.40;99.90;;;;;;5072546;28;20421;-56
2022/08/30 04:45:26;;;;;;;8.93;7.40;;;19.60;99.90;;;;;;5072215;28;20448;-55
2022/08/30 04:47:54;;;;;;;7.87;7.07;;;19.60;99.90;;;;;;5072922;28;20527;-56
2022/08/30 04:50:22;;;;;;;12.90;7.70;;;19.60;99.90;;;;;;5075450;28;20458;-56
2022/08/30 04:52:50;;;;;;;8.53;7.63;;;19.30;99.90;;;;;;5076263;28;20480;-56
2022/08/30 04:55:17;;;;;;;8.90;7.70;;;19.50;99.90;;;;;;5076063;28;20448;-55
2022/08/30 04:57:44;;;;;;;9.63;6.90;;;19.60;99.90;;;;;;5075977;28;20982;-56
2022/08/30 05:00:13;;;;;;;10.27;8.37;;;19.40;99.90;;;;;;5076202;28;20543;-56
2022/08/30 05:02:42;;;;;;;9.00;7.40;;;19.30;99.90;;;;;;5076262;28;20513;-56
2022/08/30 05:07:55;;;;;;;9.37;7.60;;;19.20;99.90;;;;;;5075917;28;20523;-56
2022/08/30 05:10:22;;;;;;;8.50;7.70;;;19.00;99.90;;;;;;5075616;28;20915;-56
2022/08/30 05:12:50;;;;;;;8.07;6.87;;;18.90;99.90;;;;;;5076248;28;20833;-56
2022/08/30 05:15:17;;;;;;;9.37;8.50;;;19.00;99.90;;;;;;5075850;28;20444;-56
2022/08/30 05:17:44;;;;;;;9.40;7.83;;;19.20;99.90;;;;;;5075897;28;20525;-56
2022/08/30 05:20:13;;;;;;;9.60;8.63;;;19.30;99.90;;;;;;5075495;28;21022;-56
2022/08/30 05:22:48;;;;;;;10.37;7.80;;;19.10;99.90;;;;;;5075601;28;20486;-56
2022/08/30 05:25:16;;;;;;;11.77;8.47;;;19.10;99.90;;;;;;5075675;28;20442;-56
2022/08/30 05:27:43;;;;;;;11.73;8.97;;;19.10;99.90;;;;;;5075723;28;20471;-56
2022/08/30 05:30:12;;;;;;;8.57;7.77;;;19.30;99.90;;;;;;5075611;28;20455;-56
2022/08/30 05:32:39;;;;;;;9.53;8.53;;;19.30;99.90;;;;;;5075257;28;20480;-56
2022/08/30 05:35:07;;;;;;;11.00;8.40;;;19.40;99.90;;;;;;5075506;28;20452;-56
2022/08/30 05:37:36;;;;;;;9.90;8.00;;;19.40;99.90;;;;;;5075686;28;20540;-56
2022/08/30 05:40:05;;;;;;;9.50;8.43;;;19.50;99.90;;;;;;5075521;28;20527;-56
2022/08/30 05:42:32;;;;;;;15.03;8.60;;;19.50;99.90;;;;;;5075399;28;20487;-56
2022/08/30 05:44:59;;;;;;;8.90;8.00;;;19.50;99.90;;;;;;5075323;28;20834;-56
2022/08/30 05:47:26;;;;;;;11.50;8.67;;;19.40;99.90;;;;;;5075109;28;20476;-56
2022/08/30 05:49:54;;;;;;;8.87;7.97;;;19.40;99.90;;;;;;5075220;28;20444;-56
2022/08/30 05:52:21;;;;;;;9.87;8.57;;;19.70;99.90;;;;;;5075085;28;20468;-56
2022/08/30 05:54:55;;;;;;;15.30;10.00;;;19.60;99.90;;;;;;5075367;28;20452;-56
2022/08/30 05:57:22;;;;;;;11.00;8.60;;;19.60;99.90;;;;;;5075188;28;20448;-56
2022/08/30 05:59:49;;;;;;;12.07;8.60;;;19.50;99.90;;;;;;5074719;28;20563;-56
2022/08/30 06:02:17;;;;;;;10.30;8.80;;;19.40;99.90;;;;;;5074726;28;20479;-56
2022/08/30 06:04:44;;;;;;;15.47;10.27;;;19.60;99.90;;;;;;5074510;28;20543;-56
2022/08/30 06:07:11;;;;;;;11.80;8.73;;;19.60;99.90;;;;;;5074916;28;20535;-56
2022/08/30 06:09:38;;;;;;;12.07;9.80;;;19.60;99.90;;;;;;5074843;28;20448;-56
2022/08/30 06:12:10;;;;;;;12.17;10.00;;;19.50;99.90;;;;;;5074757;28;20892;-57
2022/08/30 06:14:38;;;;;;;14.97;10.53;;;19.60;99.90;;;;;;5074543;28;20507;-56
2022/08/30 06:17:06;;;;;;;11.30;10.20;;;19.60;99.90;;;;;;5074272;28;20450;-56
2022/08/30 06:19:33;;;;;;;13.90;11.40;;;19.60;99.90;;;;;;5074474;28;20946;-56
2022/08/30 06:22:00;;;;;;;18.33;10.30;;;19.60;99.90;;;;;;5074499;28;20503;-56
2022/08/30 06:24:27;;;;;;;12.57;11.23;;;19.70;99.90;;;;;;5074131;28;20819;-56
2022/08/30 06:26:55;;;;;;;14.80;10.87;;;19.80;99.90;;;;;;5074713;28;20454;-56
2022/08/30 06:29:24;;;;;;;19.80;10.53;;;19.90;99.90;;;;;;5074184;28;20444;-56
2022/08/30 06:31:51;;;;;;;14.70;11.57;;;20.00;99.90;;;;;;5074237;28;20475;-56
2022/08/30 06:34:18;;;;;;;25.50;11.20;;;20.10;99.90;;;;;;5073941;28;20936;-61
2022/08/30 06:36:45;;;;;;;12.67;11.33;;;20.30;99.90;;;;;;5074054;28;20474;-56
2022/08/30 06:39:12;;;;;;;14.17;10.30;;;20.40;99.90;;;;;;5074048;28;20449;-56
2022/08/30 06:41:41;;;;;;;12.47;10.00;;;20.60;99.90;;;;;;5073717;28;20480;-56
2022/08/30 06:44:08;;;;;;;11.10;9.97;;;20.70;99.90;;;;;;5073964;28;20554;-56
2022/08/30 06:46:38;;;;;;;9.47;8.20;;;20.90;99.90;;;;;;5073599;28;20551;-56
2022/08/30 06:49:07;;;;;;;12.23;11.00;;;21.10;99.90;;;;;;5073794;28;20475;-56
2022/08/30 06:51:37;;;;;;;11.50;8.87;;;21.20;99.90;;;;;;5073989;28;20468;-56
2022/08/30 06:54:05;;;;;;;11.70;10.50;;;21.30;99.90;;;;;;5073832;28;20567;-56
2022/08/30 06:56:32;;;;;;;15.20;9.90;;;21.60;99.90;;;;;;5073515;28;20970;-56
2022/08/30 06:59:00;;;;;;;12.57;10.67;;;21.60;99.90;;;;;;5073988;28;20535;-56
2022/08/30 07:01:29;;;;;;;15.40;10.20;;;21.50;99.90;;;;;;5073677;28;20468;-56
2022/08/30 07:03:59;;;;;;;12.50;10.87;;;21.20;99.90;;;;;;5073653;28;20449;-55
2022/08/30 07:06:28;;;;;;;8.53;7.73;;;21.10;99.90;;;;;;5073721;28;20510;-56
2022/08/30 07:08:56;;;;;;;8.60;7.27;;;21.40;99.90;;;;;;5073534;28;20511;-56
2022/08/30 07:11:29;;;;;;;10.57;8.10;;;22.30;99.90;;;;;;5073035;28;20801;-56
2022/08/30 07:13:57;;;;;;;15.27;10.40;;;22.80;99.90;;;;;;5073421;28;20464;-56
2022/08/30 07:16:24;;;;;;;9.20;8.23;;;23.10;99.90;;;;;;5073514;28;20864;-55
2022/08/30 07:18:53;;;;;;;11.63;9.33;;;23.00;99.90;;;;;;5073090;28;20480;-56
2022/08/30 07:21:24;;;;;;;12.37;8.67;;;22.60;99.90;;;;;;5072803;28;21020;-56
2022/08/30 07:23:53;;;;;;;8.20;7.33;;;23.00;99.90;;;;;;5073277;28;20420;-56
2022/08/30 07:26:23;;;;;;;15.47;7.40;;;23.40;99.90;;;;;;5073312;28;20532;-52
2022/08/30 07:28:50;;;;;;;11.33;10.23;;;24.00;99.90;;;;;;5073142;28;20854;-51
2022/08/30 07:31:19;;;;;;;13.80;9.47;;;23.80;99.90;;;;;;5072801;28;20472;-57
2022/08/30 07:33:46;;;;;;;12.90;9.73;;;24.00;99.90;;;;;;5065805;28;20488;-55
2022/08/30 07:36:16;;;;;;;10.60;8.87;;;23.10;99.90;;;;;;5071194;28;20454;-51
2022/08/30 07:38:45;;;;;;;11.00;9.50;;;22.70;99.90;;;;;;5071804;28;20807;-56
2022/08/30 07:41:17;;;;;;;11.60;10.07;;;22.90;99.90;;;;;;5070832;28;20498;-55
2022/08/30 07:43:45;;;;;;;12.10;9.87;;;23.10;99.90;;;;;;5070822;28;20425;-56
2022/08/30 07:46:15;;;;;;;9.20;8.40;;;23.20;99.90;;;;;;5071632;28;20472;-55
2022/08/30 07:48:43;;;;;;;10.03;7.60;;;23.10;99.90;;;;;;5070436;28;20535;-54
2022/08/30 07:51:13;;;;;;;11.13;9.23;;;23.00;99.90;;;;;;5071820;28;20507;-56
2022/08/30 07:53:40;;;;;;;10.90;9.20;;;23.00;99.90;;;;;;5071655;28;20494;-56
2022/08/30 07:56:09;;;;;;;11.43;9.20;;;23.20;99.90;;;;;;5070616;28;20451;-60
2022/08/30 07:58:38;;;;;;;8.70;7.37;;;23.70;99.90;;;;;;5071942;28;20540;-56
2022/08/30 08:01:06;;;;;;;11.20;8.47;;;23.90;99.90;;;;;;5071815;28;20518;-54
2022/08/30 08:03:34;;;;;;;10.47;8.30;;;24.30;99.90;;;;;;5070041;28;20528;-62
2022/08/30 08:06:02;;;;;;;11.50;8.60;;;24.00;99.90;;;;;;5071762;28;20455;-60
2022/08/30 08:08:30;;;;;;;12.60;7.53;;;24.00;99.90;;;;;;5071892;28;20458;-62
2022/08/30 08:10:57;;;;;;;7.90;7.10;;;23.70;99.90;;;;;;5069614;28;20562;-69
2022/08/30 08:13:26;;;;;;;7.70;7.10;;;24.10;99.90;;;;;;5071474;28;20451;-65
2022/08/30 08:15:53;;;;;;;11.00;8.80;;;24.40;99.90;;;;;;5072122;28;20900;-60
2022/08/30 08:18:21;;;;;;;11.80;7.30;;;24.60;99.90;;;;;;5069835;28;20542;-58
2022/08/30 08:20:48;;;;;;;10.10;8.20;;;24.90;99.90;;;;;;5071684;28;20511;-57
2022/08/30 08:23:16;;;;;;;9.07;8.13;;;25.10;99.90;;;;;;5073115;28;20523;-60
2022/08/30 08:25:43;;;;;;;9.90;8.07;;;25.00;99.90;;;;;;5073586;28;20459;-56
2022/08/30 08:28:10;;;;;;;8.73;7.87;;;25.10;99.90;;;;;;5075797;28;20802;-59
2022/08/30 08:30:39;;;;;;;9.00;8.20;;;24.70;99.90;;;;;;5076060;28;20905;-59
2022/08/30 08:33:06;;;;;;;7.67;6.90;;;24.70;99.90;;;;;;5073660;28;20479;-58
2022/08/30 08:35:33;;;;;;;9.90;7.30;;;24.70;99.90;;;;;;5075548;28;20484;-57
2022/08/30 08:38:01;;;;;;;8.27;7.50;;;25.20;99.90;;;;;;5075889;28;20890;-60
2022/08/30 08:40:31;;;;;;;9.23;7.20;;;25.60;99.90;;;;;;5073267;28;20444;-62
2022/08/30 08:43:02;;;;;;;8.03;7.33;;;26.30;99.90;;;;;;5075519;28;20523;-62
2022/08/30 08:45:43;;;;;;;8.37;7.43;;;27.10;99.90;;;;;;5075212;28;20428;-63
2022/08/30 08:48:19;;;;;;;9.50;7.53;;;27.50;99.90;;;;;;5073663;28;20425;-62
2022/08/30 08:53:37;;;;;;;8.47;7.40;;;28.10;99.90;;;;;;5074490;28;20423;-58
2022/08/30 08:56:11;;;;;;;10.20;7.07;;;27.80;99.90;;;;;;5073790;28;20511;-60
2022/08/30 08:58:43;;;;;;;9.17;8.10;;;27.70;99.90;;;;;;5075098;28;20451;-64
2022/08/30 09:01:14;;;;;;;8.80;7.50;;;27.60;99.90;;;;;;5075193;28;20859;-59
2022/08/30 09:03:42;;;;;;;7.77;7.00;;;28.40;99.30;;;;;;5072729;28;20965;-60
2022/08/30 09:06:22;;;;;;;8.80;6.30;;;28.20;98.80;;;;;;5074483;28;20448;-58
2022/08/30 09:08:49;;;;;;;7.53;5.97;;;29.10;98.30;;;;;;5073639;28;20523;-62
2022/08/30 09:11:23;;;;;;;6.13;5.40;;;28.80;97.70;;;;;;5074880;28;20519;-63
2022/08/30 09:13:50;;;;;;;15.20;6.93;;;29.20;97.80;;;;;;5074779;28;20496;-62
2022/08/30 09:16:36;;;;;;;10.27;5.60;;;;;;;;;;5072635;28;20462;-63
2022/08/30 09:19:05;;;;;;;7.47;6.60;;;29.70;95.20;;;;;;5074773;28;20994;-63
2022/08/30 09:21:32;;;;;;;7.53;5.60;;;29.90;95.20;;;;;;5074211;28;20551;-62
2022/08/30 09:24:03;;;;;;;6.20;5.70;;;29.90;95.00;;;;;;5074200;28;20509;-63
2022/08/30 09:26:32;;;;;;;9.80;5.87;;;30.20;94.70;;;;;;5071540;28;20448;-62
2022/08/30 09:28:59;;;;;;;6.97;6.00;;;30.30;94.00;;;;;;5074600;28;20452;-62
2022/08/30 09:31:29;;;;;;;7.40;6.80;;;30.60;93.20;;;;;;5074598;28;20478;-63
2022/08/30 09:34:02;;;;;;;6.67;6.00;;;30.50;93.90;;;;;;5069861;28;20563;-62
2022/08/30 09:36:35;;;;;;;8.10;5.97;;;31.00;92.70;;;;;;5073783;28;20904;-62
2022/08/30 09:39:05;;;;;;;6.17;5.57;;;30.40;92.60;;;;;;5074625;28;20895;-61
2022/08/30 09:41:38;;;;;;;7.40;6.80;;;30.70;91.60;;;;;;5072279;28;20559;-60
2022/08/30 09:44:14;;;;;;;6.20;5.70;;;30.60;92.10;;;;;;5074609;28;20421;-58
2022/08/30 09:46:47;;;;;;;6.03;5.53;;;31.60;91.90;;;;;;5074255;28;20484;-58
2022/08/30 09:49:32;;;;;;;9.43;6.00;;;31.50;91.20;;;;;;5072649;28;20828;-58
2022/08/30 09:52:12;;;;;;;6.23;5.60;;;30.60;91.00;;;;;;5074268;28;20820;-60
2022/08/30 09:54:53;;;;;;;7.23;6.53;;;30.80;90.80;;;;;;5071885;28;20500;-66
2022/08/30 09:57:28;;;;;;;7.00;6.40;;;30.40;91.30;;;;;;5073852;28;20436;-63
2022/08/30 10:00:02;;;;;;;6.37;5.77;;;30.60;91.70;;;;;;5074559;28;20435;-58
2022/08/30 10:02:53;;;;;;;7.30;5.63;;;30.70;89.70;;;;;;5071820;28;20468;-61
2022/08/30 10:05:27;;;;;;;24.03;6.90;;;31.10;90.90;;;;;;5073706;28;20990;-60
2022/08/30 10:08:04;;;;;;;6.43;5.93;;;30.90;90.00;;;;;;5074244;28;20929;-60
2022/08/30 10:10:37;;;;;;;7.77;6.93;;;31.50;88.40;;;;;;5072029;28;20464;-60
2022/08/30 10:13:21;;;;;;;6.67;6.07;;;31.40;87.40;;;;;;5073707;28;20944;-60
2022/08/30 10:15:54;;;;;;;7.63;6.50;;;31.50;87.40;;;;;;5073925;28;20570;-58
2022/08/30 10:18:30;;;;;;;6.53;5.93;;;32.50;87.00;;;;;;5072117;28;20519;-60
2022/08/30 10:21:05;;;;;;;6.90;6.30;;;32.60;86.30;;;;;;5074077;28;20468;-58
2022/08/30 10:23:37;;;;;;;6.23;5.70;;;32.80;84.70;;;;;;5072323;28;20442;-56
2022/08/30 10:26:12;;;;;;;6.10;5.50;;;32.80;85.20;;;;;;5071697;28;20468;-59
2022/08/30 10:28:43;;;;;;;6.40;5.70;;;32.80;84.00;;;;;;5073751;28;20440;-57
2022/08/30 10:31:16;;;;;;;6.93;5.97;;;32.50;82.30;;;;;;5072966;28;20504;-60
2022/08/30 10:33:46;;;;;;;5.90;5.50;;;;;;;;;;5071249;28;20429;-58
2022/08/30 10:36:15;;;;;;;5.93;5.43;;;33.40;76.40;;;;;;5073289;28;20476;-60
2022/08/30 10:38:48;;;;;;;6.40;5.90;;;32.70;78.00;;;;;;5073282;28;20938;-59
2022/08/30 10:41:24;;;;;;;5.97;5.47;;;32.40;79.40;;;;;;5072254;28;20483;-61
2022/08/30 10:43:58;;;;;;;6.87;6.17;;;31.90;77.30;;;;;;5073170;28;20927;-59
2022/08/30 10:46:31;;;;;;;5.60;5.10;;;32.40;78.50;;;;;;5070172;28;20547;-61
2022/08/30 10:49:01;;;;;;;7.97;5.90;;;32.80;76.90;;;;;;5073590;28;20855;-62
2022/08/30 10:51:42;;;;;;;5.70;5.27;;;32.70;74.90;;;;;;5072805;28;20628;-60
2022/08/30 10:54:17;;;;;;;5.53;5.13;;;32.10;73.00;;;;;;5071081;28;20558;-58
2022/08/30 10:56:48;;;;;;;5.67;5.23;;;32.80;75.80;;;;;;5073410;28;20428;-59
2022/08/30 10:59:17;;;;;;;7.73;5.90;;;33.10;73.40;;;;;;5072857;28;20794;-62
2022/08/30 11:02:18;;;;;;;6.13;5.63;;;33.30;73.10;;;;;;5070934;28;21013;-63
2022/08/30 11:05:01;;;;;;;5.83;5.37;;;32.70;72.40;;;;;;5047302;28;20448;-61
2022/08/30 11:07:39;;;;;;;5.43;5.03;;;32.70;71.30;;;;;;5073037;28;20499;-63
2022/08/30 11:10:28;;;;;;;6.40;5.80;;;33.40;72.00;;;;;;5071020;28;20460;-62
2022/08/30 11:13:02;;;;;;;6.10;5.50;;;33.90;70.10;;;;;;5072983;28;20450;-62
2022/08/30 11:15:34;;;;;;;5.83;5.33;;;33.90;69.40;;;;;;5072742;28;20486;-59
2022/08/30 11:18:05;;;;;;;5.90;5.10;;;34.00;68.90;;;;;;5071302;28;20448;-60
2022/08/30 11:20:42;;;;;;;5.50;5.00;;;33.80;66.20;;;;;;5072207;28;20451;-62
2022/08/30 11:23:34;;;;;;;5.93;5.47;;;33.70;61.90;;;;;;5072583;28;20432;-59
2022/08/30 11:26:06;;;;;;;5.77;5.27;;;33.90;61.80;;;;;;5072684;28;20533;-64
2022/08/30 11:29:02;;;;;;;7.43;4.97;;;33.70;62.10;;;;;;5072765;28;20527;-64
2022/08/30 11:31:41;;;;;;;5.70;5.20;;;33.80;64.50;;;;;;5070362;28;20463;-62
2022/08/30 11:34:08;;;;;;;5.57;5.07;;;32.80;64.40;;;;;;5070123;28;20436;-61
2022/08/30 11:37:06;;;;;;;6.10;5.60;;;32.80;65.70;;;;;;5070743;28;20527;-60
2022/08/30 11:39:57;;;;;;;6.10;5.60;;;32.00;64.60;;;;;;5070225;28;20783;-60
2022/08/30 11:42:33;;;;;;;6.80;6.27;;;31.40;67.00;;;;;;5072188;28;20480;-59
2022/08/30 11:45:39;;;;;;;6.00;5.50;;;31.40;67.80;;;;;;5072807;28;20424;-56
2022/08/30 11:48:08;;;;;;;6.70;5.40;;;30.90;68.50;;;;;;5051023;28;20452;-61
2022/08/30 11:50:47;;;;;;;5.93;5.30;;;30.60;70.30;;;;;;5072480;28;20472;-58
2022/08/30 11:53:24;;;;;;;8.17;5.63;;;30.50;70.90;;;;;;5071714;28;20468;-53
2022/08/30 11:56:07;;;;;;;5.40;4.90;;;30.10;70.30;;;;;;5068697;28;20555;-61
2022/08/30 11:58:48;;;;;;;7.20;5.20;;;29.80;73.10;;;;;;5076469;28;20478;-62
2022/08/30 12:01:19;;;;;;;6.93;6.10;;;29.40;72.70;;;;;;5078249;28;20468;-57
2022/08/30 12:03:55;;;;;;;7.90;6.30;;;29.20;72.50;;;;;;5076716;28;20788;-59
2022/08/30 12:06:48;;;;;;;6.50;5.90;;;29.20;74.20;;;;;;5078736;28;20462;-60
2022/08/30 12:09:59;;;;;;;12.57;5.47;;;28.90;73.90;;;;;;5076800;28;21283;-53
2022/08/30 12:12:48;;;;;;;5.30;4.80;;;28.80;74.50;;;;;;5079133;28;20478;-53
2022/08/30 12:15:55;;;;;;;6.13;5.40;;;29.20;75.80;;;;;;5078346;28;20479;-56
2022/08/30 12:18:42;;;;;;;5.97;5.47;;;29.30;74.50;;;;;;5076615;28;20917;-56
2022/08/30 12:21:22;;;;;;;8.30;5.30;;;29.20;74.90;;;;;;5077955;28;20525;-57
2022/08/30 12:23:56;;;;;;;6.33;5.47;;;29.30;75.00;;;;;;5076516;28;20511;-64
2022/08/30 12:26:35;;;;;;;6.33;5.87;;;29.00;74.50;;;;;;5078947;28;20760;-66
2022/08/30 12:29:17;;;;;;;5.70;5.03;;;28.90;75.20;;;;;;5078766;28;20432;-69
2022/08/30 12:31:49;;;;;;;7.40;5.93;;;29.10;74.60;;;;;;5076850;28;20805;-68
2022/08/30 12:34:25;;;;;;;5.47;4.97;;;29.30;72.10;;;;;;5078564;28;20452;-69
2022/08/30 12:36:57;;;;;;;8.23;6.00;;;29.60;73.40;;;;;;5077923;28;20428;-68
2022/08/30 12:39:28;;;;;;;6.90;6.33;;;30.00;75.00;;;;;;5076682;28;20784;-68
2022/08/30 12:41:56;;;;;;;6.37;5.77;;;30.30;73.80;;;;;;5078328;28;20468;-68
2022/08/30 12:44:26;;;;;;;5.97;5.47;;;30.40;73.70;;;;;;5077711;28;20443;-68
2022/08/30 12:46:58;;;;;;;6.07;5.53;;;30.90;73.80;;;;;;5075333;28;20818;-67
2022/08/30 12:49:28;;;;;;;7.20;5.90;;;31.20;74.10;;;;;;5078540;28;20424;-69
2022/08/30 12:51:56;;;;;;;5.80;5.40;;;31.00;72.50;;;;;;5078284;28;20471;-70
2022/08/30 12:54:29;;;;;;;6.40;5.80;;;30.80;72.40;;;;;;5075903;28;20822;-70
2022/08/30 12:57:00;;;;;;;6.17;5.23;;;30.90;72.20;;;;;;5077990;28;20464;-64
2022/08/30 12:59:46;;;;;;;6.63;6.03;;;30.70;71.00;;;;;;5078217;28;20432;-59
2022/08/30 13:02:17;;;;;;;5.93;5.37;;;30.70;71.20;;;;;;5076673;28;20471;-59
2022/08/30 13:04:46;;;;;;;6.60;5.20;;;30.50;72.60;;;;;;5078052;28;20436;-59
2022/08/30 13:07:25;;;;;;;5.23;4.83;;;30.80;73.40;;;;;;5078091;28;20444;-57
2022/08/30 13:10:15;;;;;;;6.40;5.80;;;31.20;72.40;;;;;;5073809;28;20424;-58